createdAt,value
2018-09-27T00:00:09.179Z,9.70
2018-09-27T00:02:43.681Z,9.60
2018-09-27T00:05:18.195Z,9.40
2018-09-27T00:07:52.931Z,9.30
2018-09-27T00:10:27.655Z,9.20
2018-09-27T00:13:02.228Z,9.20
2018-09-27T00:15:36.850Z,9.30
2018-09-27T00:18:11.592Z,9.30
2018-09-27T00:20:46.241Z,9.30
2018-09-27T00:23:20.935Z,9.30
2018-09-27T00:25:55.582Z,9.20
2018-09-27T00:28:30.255Z,9.20
2018-09-27T00:31:04.866Z,9.20
2018-09-27T00:33:39.491Z,9.10
2018-09-27T00:36:14.244Z,9.10
2018-09-27T00:38:48.912Z,9.10
2018-09-27T00:41:23.443Z,9.10
2018-09-27T00:43:58.183Z,9.20
2018-09-27T00:46:32.667Z,9.20
2018-09-27T00:49:07.268Z,9.20
2018-09-27T00:51:41.876Z,9.20
2018-09-27T00:54:16.743Z,9.20
2018-09-27T00:56:51.373Z,9.30
2018-09-27T00:59:25.983Z,9.20
2018-09-27T01:02:00.611Z,9.20
2018-09-27T01:04:35.219Z,9.40
2018-09-27T01:07:09.891Z,9.40
2018-09-27T01:09:44.393Z,9.50
2018-09-27T01:12:19.085Z,9.40
2018-09-27T01:14:53.563Z,9.40
2018-09-27T01:17:28.272Z,9.20
2018-09-27T01:20:02.842Z,9.20
2018-09-27T01:22:37.643Z,9.10
2018-09-27T01:25:12.259Z,9.10
2018-09-27T01:27:46.821Z,9.00
2018-09-27T01:30:21.519Z,9.10
2018-09-27T01:32:56.258Z,9.10
2018-09-27T01:35:30.831Z,9.00
2018-09-27T01:38:05.500Z,9.00
2018-09-27T01:40:40.155Z,8.90
2018-09-27T01:43:14.979Z,8.90
2018-09-27T01:45:49.563Z,8.90
2018-09-27T01:48:24.186Z,8.80
2018-09-27T01:50:59.027Z,8.80
2018-09-27T01:53:33.716Z,8.70
2018-09-27T01:56:08.331Z,8.70
2018-09-27T01:58:43.062Z,8.70
2018-09-27T02:01:17.662Z,8.80
2018-09-27T02:03:52.174Z,8.80
2018-09-27T02:06:26.810Z,8.80
2018-09-27T02:09:02.103Z,8.70
2018-09-27T02:11:37.040Z,8.80
2018-09-27T02:14:11.643Z,8.70
2018-09-27T02:16:46.451Z,8.80
2018-09-27T02:19:21.130Z,8.80
2018-09-27T02:21:55.672Z,8.80
2018-09-27T02:24:30.334Z,8.90
2018-09-27T02:27:04.960Z,8.90
2018-09-27T02:29:39.735Z,8.80
2018-09-27T02:32:14.442Z,8.80
2018-09-27T02:34:49.045Z,8.80
2018-09-27T02:37:23.550Z,8.80
2018-09-27T02:39:58.220Z,8.80
2018-09-27T02:42:32.651Z,8.90
2018-09-27T02:45:07.547Z,8.90
2018-09-27T02:47:43.563Z,8.80
2018-09-27T02:50:18.218Z,8.70
2018-09-27T02:52:52.838Z,8.70
2018-09-27T02:55:27.543Z,8.70
2018-09-27T02:58:02.027Z,8.60
2018-09-27T03:00:36.557Z,8.60
2018-09-27T03:03:11.146Z,8.50
2018-09-27T03:05:45.942Z,8.50
2018-09-27T03:08:20.699Z,8.50
2018-09-27T03:10:55.363Z,8.50
2018-09-27T03:13:29.919Z,8.60
2018-09-27T03:16:04.511Z,8.70
2018-09-27T03:18:39.162Z,8.70
2018-09-27T03:21:13.866Z,8.70
2018-09-27T03:23:48.553Z,8.60
2018-09-27T03:26:23.190Z,8.40
2018-09-27T03:28:58.098Z,8.20
2018-09-27T03:31:32.734Z,8.10
2018-09-27T03:34:07.356Z,8.10
2018-09-27T03:36:42.079Z,8.10
2018-09-27T03:39:16.781Z,8.30
2018-09-27T03:41:51.389Z,8.50
2018-09-27T03:44:25.893Z,8.60
2018-09-27T03:46:54.883Z,8.70
2018-09-27T03:49:24.038Z,8.70
2018-09-27T03:51:53.071Z,8.70
2018-09-27T03:54:22.111Z,8.60
2018-09-27T03:56:51.173Z,8.40
2018-09-27T03:59:20.223Z,8.40
2018-09-27T04:01:49.215Z,8.40
2018-09-27T04:04:18.259Z,8.30
2018-09-27T04:06:47.291Z,8.40
2018-09-27T04:09:16.337Z,8.30
2018-09-27T04:11:45.335Z,8.20
2018-09-27T04:14:14.403Z,8.30
2018-09-27T04:16:43.419Z,8.30
2018-09-27T04:19:12.752Z,8.30
2018-09-27T04:21:41.777Z,8.20
2018-09-27T04:24:10.911Z,8.10
2018-09-27T04:26:39.906Z,8.10
2018-09-27T04:29:09.051Z,8.20
2018-09-27T04:31:38.078Z,8.20
2018-09-27T04:34:07.209Z,8.30
2018-09-27T04:36:36.223Z,8.20
2018-09-27T04:39:08.307Z,8.10
2018-09-27T04:41:37.542Z,8.20
2018-09-27T04:44:06.665Z,8.40
2018-09-27T04:46:35.693Z,8.40
2018-09-27T04:49:04.795Z,8.30
2018-09-27T04:51:33.857Z,8.40
2018-09-27T04:54:02.899Z,8.40
2018-09-27T04:56:31.961Z,8.40
2018-09-27T04:59:01.021Z,8.50
2018-09-27T05:01:30.125Z,8.60
2018-09-27T05:03:59.188Z,8.50
2018-09-27T05:06:28.354Z,8.40
2018-09-27T05:08:57.446Z,8.30
2018-09-27T05:11:26.582Z,8.20
2018-09-27T05:13:55.658Z,8.00
2018-09-27T05:16:24.740Z,7.90
2018-09-27T05:18:53.830Z,7.80
2018-09-27T05:21:22.989Z,7.70
2018-09-27T05:23:52.097Z,7.50
2018-09-27T05:26:21.218Z,7.50
2018-09-27T05:28:50.270Z,7.60
2018-09-27T05:31:19.385Z,7.70
2018-09-27T05:33:48.464Z,7.80
2018-09-27T05:36:18.419Z,7.80
2018-09-27T05:38:47.598Z,7.90
2018-09-27T05:41:16.957Z,7.80
2018-09-27T05:43:46.119Z,7.60
2018-09-27T05:46:15.356Z,7.60
2018-09-27T05:48:44.985Z,7.80
2018-09-27T05:51:14.085Z,7.90
2018-09-27T05:53:43.140Z,8.10
2018-09-27T05:56:12.214Z,8.20
2018-09-27T05:58:41.452Z,8.10
2018-09-27T06:01:10.608Z,8.10
2018-09-27T06:03:39.919Z,8.30
2018-09-27T06:06:09.014Z,8.30
2018-09-27T06:08:38.117Z,8.40
2018-09-27T06:11:07.294Z,8.70
2018-09-27T06:13:36.372Z,8.70
2018-09-27T06:16:05.586Z,8.60
2018-09-27T06:18:34.672Z,8.60
2018-09-27T06:21:03.829Z,8.80
2018-09-27T06:23:32.892Z,9.10
2018-09-27T06:26:02.143Z,9.10
2018-09-27T06:28:31.226Z,9.00
2018-09-27T06:31:00.303Z,9.10
2018-09-27T06:33:29.411Z,9.30
2018-09-27T06:35:58.607Z,9.40
2018-09-27T06:38:27.719Z,9.40
2018-09-27T06:40:56.816Z,9.50
2018-09-27T06:43:25.887Z,9.50
2018-09-27T06:45:55.002Z,9.50
2018-09-27T06:48:24.326Z,9.50
2018-09-27T06:50:53.419Z,9.50
2018-09-27T06:53:22.517Z,9.50
2018-09-27T06:55:51.830Z,9.60
2018-09-27T06:58:20.862Z,9.60
2018-09-27T07:00:49.992Z,9.60
2018-09-27T07:03:19.406Z,9.50
2018-09-27T07:05:48.490Z,9.50
2018-09-27T07:08:17.604Z,9.40
2018-09-27T07:10:46.719Z,9.40
2018-09-27T07:13:15.806Z,9.50
2018-09-27T07:15:44.907Z,9.50
2018-09-27T07:18:14.005Z,9.50
2018-09-27T07:20:43.115Z,9.50
2018-09-27T07:23:12.202Z,9.50
2018-09-27T07:25:41.292Z,9.50
2018-09-27T07:28:10.335Z,9.50
2018-09-27T07:30:39.487Z,9.50
2018-09-27T07:33:08.569Z,9.50
2018-09-27T07:35:37.650Z,9.50
2018-09-27T07:38:06.765Z,9.50
2018-09-27T07:40:35.926Z,9.60
2018-09-27T07:43:05.012Z,9.70
2018-09-27T07:45:34.078Z,9.80
2018-09-27T07:48:03.216Z,9.80
2018-09-27T07:50:32.334Z,9.90
2018-09-27T07:53:01.435Z,10.10
2018-09-27T07:55:30.591Z,10.20
2018-09-27T07:57:59.682Z,10.30
2018-09-27T08:00:28.882Z,10.40
2018-09-27T08:02:58.077Z,10.50
2018-09-27T08:05:27.155Z,10.60
2018-09-27T08:07:56.278Z,10.80
2018-09-27T08:10:25.347Z,11.10
2018-09-27T08:12:54.820Z,11.20
2018-09-27T08:15:23.946Z,11.20
2018-09-27T08:17:53.067Z,11.40
2018-09-27T08:20:22.510Z,12.70
2018-09-27T08:22:51.905Z,15.00
2018-09-27T08:25:20.991Z,16.80
2018-09-27T08:27:50.075Z,18.60
2018-09-27T08:30:19.205Z,19.20
2018-09-27T08:32:48.390Z,19.00
2018-09-27T08:35:17.448Z,19.40
2018-09-27T08:37:46.526Z,19.20
2018-09-27T08:40:15.607Z,19.70
2018-09-27T08:42:44.706Z,19.60
2018-09-27T08:45:14.115Z,19.30
2018-09-27T08:47:42.842Z,19.80
2018-09-27T08:50:11.907Z,21.00
2018-09-27T08:52:41.006Z,20.50
2018-09-27T08:55:10.046Z,21.40
2018-09-27T08:57:39.216Z,21.60
2018-09-27T09:00:09.136Z,21.60
2018-09-27T09:02:38.295Z,21.00
2018-09-27T09:05:07.363Z,21.90
2018-09-27T09:07:36.533Z,22.50
2018-09-27T09:10:05.682Z,23.40
2018-09-27T09:12:34.758Z,23.00
2018-09-27T09:15:03.913Z,23.60
2018-09-27T09:17:32.988Z,23.90
2018-09-27T09:20:02.025Z,24.30
2018-09-27T09:22:31.128Z,24.70
2018-09-27T09:25:00.175Z,24.80
2018-09-27T09:27:29.303Z,24.80
2018-09-27T09:29:58.407Z,25.10
2018-09-27T09:32:27.475Z,25.70
2018-09-27T09:34:56.530Z,25.80
2018-09-27T09:37:25.611Z,25.10
2018-09-27T09:39:54.673Z,25.30
2018-09-27T09:42:23.759Z,25.80
2018-09-27T09:44:52.829Z,25.80
2018-09-27T09:47:21.939Z,26.40
2018-09-27T09:49:51.055Z,26.40
2018-09-27T09:52:20.123Z,26.50
2018-09-27T09:54:49.198Z,26.10
2018-09-27T09:57:18.311Z,26.40
2018-09-27T09:59:47.406Z,26.50
2018-09-27T10:02:16.468Z,27.10
2018-09-27T10:04:45.562Z,27.00
2018-09-27T10:07:14.626Z,27.40
2018-09-27T10:09:43.726Z,27.60
2018-09-27T10:12:12.782Z,27.80
2018-09-27T10:14:41.853Z,28.30
2018-09-27T10:17:10.893Z,27.80
2018-09-27T10:19:39.982Z,27.60
2018-09-27T10:22:09.100Z,27.30
2018-09-27T10:24:38.163Z,27.80
2018-09-27T10:27:07.217Z,27.60
2018-09-27T10:29:36.282Z,27.60
2018-09-27T10:32:05.318Z,26.80
2018-09-27T10:34:34.561Z,26.70
2018-09-27T10:37:03.590Z,27.00
2018-09-27T10:39:32.644Z,27.30
2018-09-27T10:42:01.673Z,27.90
2018-09-27T10:44:30.798Z,28.50
2018-09-27T10:46:59.792Z,28.60
2018-09-27T10:49:28.842Z,28.00
2018-09-27T10:51:57.899Z,27.60
2018-09-27T10:54:26.939Z,27.90
2018-09-27T10:56:55.936Z,28.30
2018-09-27T10:59:25.191Z,28.70
2018-09-27T11:01:54.222Z,28.50
2018-09-27T11:04:23.255Z,28.30
2018-09-27T11:06:52.299Z,29.00
2018-09-27T11:09:21.352Z,29.10
2018-09-27T11:11:52.791Z,29.50
2018-09-27T11:14:23.258Z,29.80
2018-09-27T11:16:52.922Z,29.60
2018-09-27T11:19:21.982Z,29.50
2018-09-27T11:21:51.044Z,29.00
2018-09-27T11:24:20.137Z,29.20
2018-09-27T11:26:49.282Z,29.00
2018-09-27T11:29:23.695Z,29.30
2018-09-27T11:31:57.954Z,29.30
2018-09-27T11:34:27.041Z,29.20
2018-09-27T11:36:56.051Z,29.20
2018-09-27T11:39:25.111Z,28.90
2018-09-27T11:41:54.114Z,29.40
2018-09-27T11:44:23.163Z,29.90
2018-09-27T11:46:52.183Z,29.70
2018-09-27T11:49:21.271Z,29.50
2018-09-27T11:51:50.292Z,28.30
2018-09-27T11:54:19.311Z,27.60
2018-09-27T11:56:48.357Z,27.70
2018-09-27T11:59:17.392Z,28.50
2018-09-27T12:01:46.450Z,28.80
2018-09-27T12:04:15.472Z,28.30
2018-09-27T12:06:44.509Z,28.30
2018-09-27T12:09:13.626Z,28.60
2018-09-27T12:11:42.642Z,28.20
2018-09-27T12:14:12.245Z,28.60
2018-09-27T12:16:41.453Z,28.90
2018-09-27T12:19:10.475Z,28.80
2018-09-27T12:21:39.486Z,29.00
2018-09-27T12:24:08.553Z,29.20
2018-09-27T12:26:37.570Z,28.60
2018-09-27T12:29:06.668Z,28.30
2018-09-27T12:31:35.677Z,27.70
2018-09-27T12:34:04.748Z,27.90
2018-09-27T12:36:33.885Z,28.20
2018-09-27T12:39:02.903Z,28.40
2018-09-27T12:41:31.996Z,28.10
2018-09-27T12:44:01.005Z,27.40
2018-09-27T12:46:30.120Z,26.70
2018-09-27T12:48:59.050Z,27.50
2018-09-27T12:51:28.136Z,27.70
2018-09-27T12:53:57.150Z,27.50
2018-09-27T12:56:26.215Z,27.40
2018-09-27T12:58:55.223Z,27.50
2018-09-27T13:01:24.368Z,27.00
2018-09-27T13:03:53.386Z,26.70
2018-09-27T13:06:22.433Z,26.70
2018-09-27T13:08:51.572Z,27.20
2018-09-27T13:11:20.561Z,27.10
2018-09-27T13:13:49.592Z,26.80
2018-09-27T13:16:18.713Z,26.50
2018-09-27T13:18:47.713Z,25.90
2018-09-27T13:21:16.779Z,26.00
2018-09-27T13:23:45.782Z,25.70
2018-09-27T13:26:14.997Z,25.60
2018-09-27T13:28:44.125Z,25.30
2018-09-27T13:31:13.088Z,25.20
2018-09-27T13:33:42.108Z,25.10
2018-09-27T13:36:11.220Z,25.00
2018-09-27T13:38:40.222Z,24.90
2018-09-27T13:41:09.315Z,24.80
2018-09-27T13:43:38.314Z,24.60
2018-09-27T13:46:07.382Z,24.70
2018-09-27T13:48:36.491Z,24.40
2018-09-27T13:51:05.686Z,24.20
2018-09-27T13:53:34.623Z,24.10
2018-09-27T13:56:03.703Z,23.80
2018-09-27T13:58:32.707Z,24.10
2018-09-27T14:01:01.957Z,23.90
2018-09-27T14:03:30.943Z,23.80
2018-09-27T14:06:00.064Z,23.70
2018-09-27T14:08:29.123Z,23.70
2018-09-27T14:10:58.167Z,23.80
2018-09-27T14:13:27.200Z,23.90
2018-09-27T14:15:56.277Z,23.80
2018-09-27T14:18:25.268Z,23.90
2018-09-27T14:20:54.302Z,23.80
2018-09-27T14:23:23.315Z,23.90
2018-09-27T14:25:52.387Z,23.70
2018-09-27T14:28:21.445Z,23.80
2018-09-27T14:30:51.074Z,23.90
2018-09-27T14:33:20.038Z,23.80
2018-09-27T14:35:49.105Z,23.70
2018-09-27T14:38:18.135Z,23.80
2018-09-27T14:40:47.212Z,23.80
2018-09-27T14:43:16.232Z,23.60
2018-09-27T14:45:45.266Z,23.50
2018-09-27T14:48:14.349Z,23.50
2018-09-27T14:50:43.411Z,23.60
2018-09-27T14:53:14.434Z,23.60
2018-09-27T14:55:43.624Z,23.40
2018-09-27T14:58:12.701Z,23.40
2018-09-27T15:00:42.028Z,23.30
2018-09-27T15:03:12.006Z,23.40
2018-09-27T15:05:41.212Z,23.40
2018-09-27T15:08:11.623Z,23.40
2018-09-27T15:10:40.671Z,23.30
2018-09-27T15:13:09.696Z,23.30
2018-09-27T15:15:38.704Z,23.30
2018-09-27T15:18:07.750Z,23.30
2018-09-27T15:20:36.738Z,23.30
2018-09-27T15:23:05.829Z,23.20
2018-09-27T15:25:34.878Z,23.20
2018-09-27T15:28:03.933Z,23.20
2018-09-27T15:30:32.986Z,23.20
2018-09-27T15:33:02.216Z,23.20
2018-09-27T15:35:31.240Z,23.10
2018-09-27T15:38:00.300Z,23.10
2018-09-27T15:40:29.351Z,23.20
2018-09-27T15:42:58.412Z,23.20
2018-09-27T15:45:27.490Z,23.20
2018-09-27T15:47:56.571Z,23.20
2018-09-27T15:50:25.592Z,23.10
2018-09-27T15:52:54.631Z,23.10
2018-09-27T15:55:23.665Z,23.10
2018-09-27T15:57:52.723Z,23.10
2018-09-27T16:00:21.755Z,23.00
2018-09-27T16:02:50.815Z,23.10
2018-09-27T16:05:19.844Z,23.00
2018-09-27T16:07:48.963Z,22.90
2018-09-27T16:10:18.013Z,22.90
2018-09-27T16:12:47.070Z,22.80
2018-09-27T16:15:16.092Z,22.70
2018-09-27T16:17:45.218Z,22.70
2018-09-27T16:20:14.219Z,22.50
2018-09-27T16:22:43.444Z,22.50
2018-09-27T16:25:12.456Z,22.40
2018-09-27T16:27:41.483Z,22.30
2018-09-27T16:30:10.521Z,22.20
2018-09-27T16:32:39.582Z,22.10
2018-09-27T16:35:08.625Z,22.10
2018-09-27T16:37:37.683Z,22.00
2018-09-27T16:40:06.891Z,22.00
2018-09-27T16:42:35.948Z,21.90
2018-09-27T16:45:05.263Z,21.80
2018-09-27T16:47:34.328Z,21.70
2018-09-27T16:50:03.397Z,21.70
2018-09-27T16:52:32.443Z,21.60
2018-09-27T16:55:01.440Z,21.40
2018-09-27T16:57:30.493Z,21.30
2018-09-27T16:59:59.511Z,21.20
2018-09-27T17:02:28.544Z,21.00
2018-09-27T17:04:57.575Z,20.90
2018-09-27T17:07:26.646Z,20.70
2018-09-27T17:09:55.665Z,20.40
2018-09-27T17:12:24.719Z,20.20
2018-09-27T17:14:53.747Z,20.00
2018-09-27T17:17:22.843Z,19.80
2018-09-27T17:19:51.875Z,19.60
2018-09-27T17:22:20.943Z,19.40
2018-09-27T17:24:49.951Z,19.20
2018-09-27T17:27:19.048Z,19.10
2018-09-27T17:29:48.126Z,18.90
2018-09-27T17:32:17.136Z,18.90
2018-09-27T17:34:46.285Z,18.70
2018-09-27T17:37:15.786Z,18.50
2018-09-27T17:39:44.910Z,18.40
2018-09-27T17:42:13.947Z,18.30
2018-09-27T17:44:43.011Z,18.20
2018-09-27T17:47:12.039Z,18.00
2018-09-27T17:49:41.122Z,17.80
2018-09-27T17:52:10.110Z,17.70
2018-09-27T17:54:39.323Z,17.70
2018-09-27T17:57:08.491Z,17.60
2018-09-27T17:59:37.544Z,17.50
2018-09-27T18:02:06.574Z,17.40
2018-09-27T18:04:35.646Z,17.30
2018-09-27T18:07:04.634Z,17.10
2018-09-27T18:09:33.668Z,17.10
2018-09-27T18:12:02.673Z,17.00
2018-09-27T18:14:31.736Z,17.00
2018-09-27T18:17:00.739Z,16.90
2018-09-27T18:19:29.835Z,16.90
2018-09-27T18:21:58.837Z,16.90
2018-09-27T18:24:27.871Z,16.80
2018-09-27T18:26:56.915Z,16.80
2018-09-27T18:29:25.949Z,16.70
2018-09-27T18:31:54.959Z,16.60
2018-09-27T18:34:23.991Z,16.50
2018-09-27T18:36:53.021Z,16.40
2018-09-27T18:39:22.076Z,16.30
2018-09-27T18:41:51.160Z,16.20
2018-09-27T18:44:20.180Z,16.10
2018-09-27T18:46:49.209Z,16.10
2018-09-27T18:49:18.250Z,16.00
2018-09-27T18:51:47.271Z,15.90
2018-09-27T18:54:16.300Z,15.90
2018-09-27T18:56:45.323Z,15.70
2018-09-27T18:59:14.367Z,15.60
2018-09-27T19:01:43.376Z,15.60
2018-09-27T19:04:12.415Z,15.50
2018-09-27T19:06:41.445Z,15.50
2018-09-27T19:09:10.474Z,15.50
2018-09-27T19:11:39.467Z,15.50
2018-09-27T19:14:08.599Z,15.50
2018-09-27T19:16:37.675Z,15.30
2018-09-27T19:19:06.714Z,15.30
2018-09-27T19:21:35.751Z,15.30
2018-09-27T19:24:04.797Z,15.20
2018-09-27T19:26:33.838Z,15.20
2018-09-27T19:29:02.951Z,15.10
2018-09-27T19:31:31.982Z,15.00
2018-09-27T19:34:01.043Z,14.90
2018-09-27T19:36:30.051Z,15.00
2018-09-27T19:38:59.071Z,14.90
2018-09-27T19:41:28.084Z,14.90
2018-09-27T19:43:57.166Z,14.80
2018-09-27T19:46:26.210Z,14.70
2018-09-27T19:48:55.212Z,14.70
2018-09-27T19:51:24.223Z,14.70
2018-09-27T19:53:53.259Z,14.70
2018-09-27T19:56:22.330Z,14.70
2018-09-27T19:58:51.355Z,14.60
2018-09-27T20:01:20.405Z,14.60
2018-09-27T20:03:49.443Z,14.50
2018-09-27T20:06:18.481Z,14.50
2018-09-27T20:08:47.591Z,14.50
2018-09-27T20:11:16.634Z,14.40
2018-09-27T20:13:45.974Z,14.40
2018-09-27T20:16:15.061Z,14.30
2018-09-27T20:18:44.047Z,14.30
2018-09-27T20:21:13.078Z,14.20
2018-09-27T20:23:42.095Z,14.20
2018-09-27T20:26:11.130Z,14.20
2018-09-27T20:28:40.171Z,14.10
2018-09-27T20:31:09.219Z,14.00
2018-09-27T20:33:38.299Z,14.00
2018-09-27T20:36:07.379Z,14.00
2018-09-27T20:38:36.454Z,14.00
2018-09-27T20:41:05.524Z,14.00
2018-09-27T20:43:34.502Z,13.90
2018-09-27T20:46:03.555Z,13.90
2018-09-27T20:48:32.555Z,13.90
2018-09-27T20:51:02.061Z,13.90
2018-09-27T20:53:31.076Z,13.80
2018-09-27T20:56:00.099Z,13.80
2018-09-27T20:58:29.131Z,13.80
2018-09-27T21:00:58.279Z,13.90
2018-09-27T21:03:27.333Z,13.90
2018-09-27T21:05:56.768Z,13.90
2018-09-27T21:08:25.796Z,13.90
2018-09-27T21:10:54.863Z,13.80
2018-09-27T21:13:23.903Z,13.80
2018-09-27T21:15:53.204Z,13.80
2018-09-27T21:18:22.245Z,13.80
2018-09-27T21:20:51.287Z,13.60
2018-09-27T21:23:20.523Z,13.70
2018-09-27T21:25:49.632Z,13.60
2018-09-27T21:28:18.952Z,13.60
2018-09-27T21:30:48.042Z,13.50
2018-09-27T21:33:22.646Z,13.30
2018-09-27T21:35:57.335Z,13.30
2018-09-27T21:38:31.994Z,13.30
2018-09-27T21:41:06.546Z,13.30
2018-09-27T21:43:41.163Z,13.30
2018-09-27T21:46:15.814Z,13.30
2018-09-27T21:48:50.510Z,13.40
2018-09-27T21:51:25.235Z,13.30
2018-09-27T21:53:59.751Z,13.30
2018-09-27T21:56:34.536Z,13.40
2018-09-27T21:59:09.194Z,13.30
2018-09-27T22:01:43.787Z,13.20
2018-09-27T22:04:18.396Z,13.30
2018-09-27T22:06:52.998Z,13.30
2018-09-27T22:09:27.478Z,13.30
2018-09-27T22:12:02.259Z,13.30
2018-09-27T22:14:37.084Z,13.20
2018-09-27T22:17:11.811Z,13.20
2018-09-27T22:19:46.523Z,13.20
2018-09-27T22:22:21.851Z,13.20
2018-09-27T22:24:56.542Z,13.10
2018-09-27T22:27:31.142Z,13.10
2018-09-27T22:30:06.205Z,12.90
2018-09-27T22:32:40.923Z,12.80
2018-09-27T22:35:15.660Z,12.60
2018-09-27T22:37:50.318Z,12.60
2018-09-27T22:40:24.899Z,12.60
2018-09-27T22:42:59.595Z,12.80
2018-09-27T22:45:34.107Z,12.70
2018-09-27T22:48:08.779Z,12.60
2018-09-27T22:50:43.467Z,12.50
2018-09-27T22:53:18.095Z,12.40
2018-09-27T22:55:52.911Z,12.30
2018-09-27T22:58:27.717Z,12.30
2018-09-27T23:01:02.444Z,12.40
2018-09-27T23:03:37.013Z,12.50
2018-09-27T23:06:11.763Z,12.60
2018-09-27T23:08:46.431Z,12.70
2018-09-27T23:11:21.059Z,12.70
2018-09-27T23:13:55.724Z,12.70
2018-09-27T23:16:30.255Z,12.60
2018-09-27T23:19:04.885Z,12.70
2018-09-27T23:21:39.542Z,12.80
2018-09-27T23:24:14.325Z,12.70
2018-09-27T23:26:48.978Z,12.60
2018-09-27T23:29:23.571Z,12.60
2018-09-27T23:31:58.299Z,12.60
2018-09-27T23:34:32.984Z,12.60
2018-09-27T23:37:07.651Z,12.50
2018-09-27T23:39:42.225Z,12.30
2018-09-27T23:42:16.751Z,12.30
2018-09-27T23:44:51.542Z,12.30
2018-09-27T23:47:26.118Z,12.30
2018-09-27T23:50:00.798Z,12.30
2018-09-27T23:52:35.319Z,12.10
2018-09-27T23:55:10.131Z,12.10
2018-09-27T23:57:44.930Z,12.00
